createdAt,value
2023-04-15T18:44:37.472Z,62.00
2023-04-15T18:47:04.641Z,68.91
2023-04-15T18:49:33.533Z,56.07
2023-04-15T18:52:00.705Z,58.34
2023-04-15T18:54:27.874Z,57.34
2023-04-15T18:56:55.097Z,56.37
2023-04-15T18:59:29.697Z,58.15
2023-04-15T19:01:59.015Z,61.04
2023-04-15T19:04:26.310Z,58.60
2023-04-15T19:06:53.448Z,61.48
2023-04-15T19:09:20.790Z,61.19
2023-04-15T19:11:48.109Z,56.58
2023-04-15T19:14:15.429Z,55.24
2023-04-15T19:16:42.607Z,54.58
2023-04-15T19:19:09.738Z,53.62
2023-04-15T19:21:37.010Z,53.88
2023-04-15T19:24:04.266Z,55.20
2023-04-15T19:26:31.599Z,54.88
2023-04-15T19:28:59.199Z,54.00
2023-04-15T19:31:26.606Z,55.41
2023-04-15T19:33:53.748Z,53.96
2023-04-15T19:36:21.076Z,53.88
2023-04-15T19:38:48.286Z,54.17
2023-04-15T19:41:15.973Z,54.76
2023-04-15T19:43:43.116Z,54.38
2023-04-15T19:46:10.280Z,54.22
2023-04-15T19:48:37.419Z,53.74
2023-04-15T19:51:05.271Z,55.63
2023-04-15T19:53:32.728Z,54.43
2023-04-15T19:55:59.877Z,54.62
2023-04-15T19:58:27.639Z,53.76
2023-04-15T20:00:54.774Z,54.78
2023-04-15T20:03:22.382Z,53.68
2023-04-15T20:05:49.773Z,53.56
2023-04-15T20:08:17.378Z,54.01
2023-04-15T20:10:44.467Z,55.11
2023-04-15T20:13:12.315Z,55.39
2023-04-15T20:15:39.455Z,55.53
2023-04-15T20:18:07.210Z,55.92
2023-04-15T20:20:35.072Z,56.46
2023-04-15T20:23:02.386Z,57.07
2023-04-15T20:25:29.497Z,57.03
2023-04-15T20:28:00.397Z,57.34
2023-04-15T20:30:29.430Z,57.06
2023-04-15T20:32:56.732Z,58.21
2023-04-15T20:35:25.356Z,58.43
2023-04-15T20:37:52.446Z,57.34
2023-04-15T20:40:19.591Z,59.06
2023-04-15T20:42:46.691Z,59.57
2023-04-15T20:45:13.923Z,62.77
2023-04-15T20:47:41.863Z,64.76
2023-04-15T20:50:09.871Z,67.84
2023-04-15T20:52:37.084Z,65.13
2023-04-15T20:55:04.496Z,64.42
2023-04-15T20:57:31.847Z,64.59
2023-04-15T20:59:59.037Z,63.67
2023-04-15T21:02:26.421Z,64.06
2023-04-15T21:04:53.653Z,65.36
2023-04-15T21:07:20.796Z,66.42
2023-04-15T21:09:48.064Z,65.57
2023-04-15T21:12:15.147Z,65.43
2023-04-15T21:14:42.324Z,65.29
2023-04-15T21:17:11.132Z,65.92
2023-04-15T21:19:38.939Z,65.60
2023-04-15T21:22:06.166Z,65.41
2023-04-15T21:24:33.446Z,68.40
2023-04-15T21:27:02.169Z,70.46
2023-04-15T21:29:29.634Z,73.60
2023-04-15T21:31:56.823Z,72.58
2023-04-15T21:34:24.111Z,75.48
2023-04-15T21:36:51.228Z,75.58
2023-04-15T21:39:18.532Z,75.59
2023-04-15T21:41:45.685Z,76.01
2023-04-15T21:44:14.869Z,75.70
2023-04-15T21:46:46.028Z,75.54
2023-04-15T21:49:14.139Z,75.27
2023-04-15T21:51:41.243Z,74.32
2023-04-15T21:54:08.439Z,74.70
2023-04-15T21:56:35.771Z,75.15
2023-04-15T21:59:02.934Z,75.40
2023-04-15T22:01:30.193Z,73.45
2023-04-15T22:03:57.632Z,76.13
2023-04-15T22:06:24.809Z,73.54
2023-04-15T22:09:11.335Z,75.18
2023-04-15T22:11:39.031Z,76.66
2023-04-15T22:14:06.360Z,77.65
2023-04-15T22:16:33.673Z,78.57
2023-04-15T22:19:00.869Z,77.91
2023-04-15T22:21:28.086Z,78.25
2023-04-15T22:24:33.507Z,77.50
2023-04-15T22:26:42.478Z,76.45
2023-04-15T22:29:10.036Z,79.01
2023-04-15T22:31:37.223Z,79.57
2023-04-15T22:34:04.459Z,77.50
2023-04-15T22:36:32.080Z,77.26
2023-04-15T22:38:59.131Z,75.94
2023-04-15T22:41:26.631Z,79.87
2023-04-15T22:43:53.755Z,80.94
2023-04-15T22:46:21.134Z,83.52
2023-04-15T22:48:48.274Z,86.18
2023-04-15T22:51:22.385Z,87.18
2023-04-15T22:53:50.935Z,87.20
2023-04-15T22:56:22.266Z,87.47
2023-04-15T22:58:50.699Z,89.09
2023-04-15T23:01:18.371Z,88.91
2023-04-15T23:03:56.973Z,86.08
2023-04-15T23:06:27.458Z,84.64
2023-04-15T23:08:54.817Z,85.21
2023-04-15T23:11:22.301Z,87.15
2023-04-15T23:13:50.880Z,85.00
2023-04-15T23:16:18.038Z,86.86
2023-04-15T23:18:45.151Z,86.34
2023-04-15T23:21:12.227Z,85.48
2023-04-15T23:23:39.313Z,84.94
2023-04-15T23:26:06.639Z,84.60
2023-04-15T23:28:33.708Z,84.42
2023-04-15T23:31:00.953Z,85.58
2023-04-15T23:33:28.162Z,85.23
2023-04-15T23:35:55.447Z,85.61
2023-04-15T23:38:22.691Z,85.27
2023-04-15T23:40:51.412Z,84.58
2023-04-15T23:43:18.511Z,85.14
2023-04-15T23:45:45.623Z,86.75
2023-04-15T23:48:12.759Z,83.36
2023-04-15T23:50:40.006Z,85.19
2023-04-15T23:53:07.132Z,86.08
2023-04-15T23:55:34.222Z,86.55
2023-04-15T23:58:01.298Z,88.34
